Dennis, Texas
Current Conditions -  °F | °C
As of 3:15 AM on Saturday 22 Nov 2014 (Local Time) from KGDJ Reporting Station
Overcast Overcast  
Wind Chill: 65°   Ceiling: 900
Heat Index: 65°   Visibility: 7mi
Dew Point: 63°   Wind: 8mph
Humidity: 91%   Direction: 100°E
Pressure: 30.03"   Gusts: NA
Location:  32.62°N, 97.93°W
Report Text: KGDJ 220915Z AUTO 10007KT 7SM BKN009 OVC014 19/17 A3003 RMK AO2 LTG DSNT SW THRU NE T01850170
Loading
Personal Weather Stations






























Interactive Weather Map New forecast layout! Learn more

10-Day Weather Forecast

Advertisements
Track Severe Weather on mobile